Time;durP1;ratioP1;P1;durP2;ratioP2;P2;SDS_P1;SDS_P2;PMS_P1;PMS_P2;Temp;Humidity;BMP_temperature;BMP_pressure;BME280_temperature;BME280_humidity;BME280_pressure;Samples;Min_cycle;Max_cycle;Signal;HPM_P1;HPM_P2
2023/08/31 00:02:19;;;;;;;4.23;3.77;;;;;;;;;;5037937;28;20188;-75
2023/08/31 00:04:45;;;;;;;7.63;4.00;;;;;;;;;;5038176;28;20297;-75
2023/08/31 00:07:11;;;;;;;5.50;3.67;;;;;;;;;;5021492;28;20218;-75
2023/08/31 00:09:37;;;;;;;5.10;3.67;;;;;;;;;;5021618;28;20188;-75
2023/08/31 00:12:03;;;;;;;5.10;4.00;;;;;;;;;;5037965;28;20206;-74
2023/08/31 00:14:29;;;;;;;5.33;3.50;;;;;;;;;;5055815;28;20238;-74
2023/08/31 00:16:57;;;;;;;6.23;3.90;;;;;;;;;;5037640;28;20275;-73
2023/08/31 00:19:23;;;;;;;4.40;3.83;;;;;;;;;;5055715;28;20222;-75
2023/08/31 00:21:49;;;;;;;3.93;3.53;;;;;;;;;;5021822;28;20183;-75
2023/08/31 00:24:15;;;;;;;5.10;3.83;;;;;;;;;;5038098;28;20207;-74
2023/08/31 00:26:42;;;;;;;6.87;3.73;;;;;;;;;;5021010;28;20184;-73
2023/08/31 00:29:11;;;;;;;4.97;3.67;;;;;;;;;;5021528;28;20176;-74
2023/08/31 00:31:37;;;;;;;4.17;3.70;;;;;;;;;;5037612;28;20275;-73
2023/08/31 00:34:04;;;;;;;5.77;4.00;;;;;;;;;;5037517;28;20223;-75
2023/08/31 00:36:33;;;;;;;6.97;4.00;;;;;;;;;;5021163;28;20197;-74
2023/08/31 00:39:05;;;;;;;5.80;4.63;;;;;;;;;;5054881;28;20191;-75
2023/08/31 00:41:32;;;;;;;7.73;4.37;;;;;;;;;;5044209;22;20231;-75
2023/08/31 00:43:58;;;;;;;5.57;3.70;;;;;;;;;;5016563;28;20213;-74
2023/08/31 00:46:27;;;;;;;10.10;4.50;;;;;;;;;;5045288;28;20267;-73
2023/08/31 00:48:53;;;;;;;6.60;4.43;;;;;;;;;;5043260;28;20176;-74
2023/08/31 00:51:19;;;;;;;4.57;3.90;;;;;;;;;;5052824;28;20198;-75
2023/08/31 00:53:45;;;;;;;6.03;3.70;;;;;;;;;;5055371;28;20250;-75
2023/08/31 00:56:13;;;;;;;6.30;4.07;;;;;;;;;;5038833;28;20218;-75
2023/08/31 00:58:40;;;;;;;6.63;4.47;;;;;;;;;;5049931;28;20188;-75
2023/08/31 01:01:26;;;;;;;7.40;4.97;;;;;;;;;;5053881;28;20181;-75
2023/08/31 01:04:14;;;;;;;8.93;5.40;;;;;;;;;;5035206;28;20207;-75
2023/08/31 01:07:02;;;;;;;7.97;5.13;;;;;;;;;;5054569;28;20175;-79
2023/08/31 01:10:04;;;;;;;9.20;5.90;;;;;;;;;;5036909;28;20218;-79
2023/08/31 01:12:36;;;;;;;8.73;6.03;;;;;;;;;;4994871;28;20191;-79
2023/08/31 01:15:09;;;;;;;8.10;6.03;;;;;;;;;;5044951;28;20184;-79
2023/08/31 01:17:38;;;;;;;10.37;6.70;;;;;;;;;;5053841;28;20238;-79
2023/08/31 01:20:06;;;;;;;12.00;8.20;;;;;;;;;;5051231;28;20183;-78
2023/08/31 01:22:48;;;;;;;9.70;8.00;;;;;;;;;;5020051;28;20195;-75
2023/08/31 01:25:14;;;;;;;11.57;8.20;;;;;;;;;;5051471;28;20293;-75
2023/08/31 01:27:41;;;;;;;11.53;8.53;;;;;;;;;;5038970;28;20198;-75
2023/08/31 01:30:08;;;;;;;9.03;8.03;;;;;;;;;;5055628;28;20175;-77
2023/08/31 01:32:34;;;;;;;12.93;8.67;;;;;;;;;;5043104;28;20280;-75
2023/08/31 01:35:01;;;;;;;11.70;9.33;;;;;;;;;;5019263;28;20250;-77
2023/08/31 01:37:51;;;;;;;13.87;10.53;;;;;;;;;;5035487;28;20187;-77
2023/08/31 01:40:20;;;;;;;12.97;10.87;;;;;;;;;;5041508;28;20199;-77
2023/08/31 01:42:47;;;;;;;15.90;11.17;;;;;;;;;;5052453;28;20301;-80
2023/08/31 01:45:15;;;;;;;12.83;11.50;;;;;;;;;;5024217;28;20211;-81
2023/08/31 01:47:41;;;;;;;18.03;12.10;;;;;;;;;;5045476;28;20180;-81
2023/08/31 01:50:07;;;;;;;12.13;10.93;;;;;;;;;;5047520;28;20186;-81
2023/08/31 01:52:33;;;;;;;17.43;12.60;;;;;;;;;;5019802;28;20188;-79
2023/08/31 01:54:59;;;;;;;16.00;13.83;;;;;;;;;;5053661;28;20218;-79
2023/08/31 01:57:25;;;;;;;18.30;14.60;;;;;;;;;;5033382;28;20183;-74
2023/08/31 01:59:52;;;;;;;17.33;14.27;;;;;;;;;;5054298;28;20266;-74
2023/08/31 02:02:18;;;;;;;19.50;14.30;;;;;;;;;;5046762;28;20213;-75
2023/08/31 02:04:44;;;;;;;17.10;14.47;;;;;;;;;;5063646;28;20266;-74
2023/08/31 02:07:10;;;;;;;17.30;14.47;;;;;;;;;;5039359;28;20190;-74
2023/08/31 02:09:36;;;;;;;16.93;15.13;;;;;;;;;;5055063;28;20187;-75
2023/08/31 02:12:02;;;;;;;16.93;15.03;;;;;;;;;;5055717;28;20260;-74
2023/08/31 02:14:30;;;;;;;16.80;15.20;;;;;;;;;;5050352;28;20269;-79
2023/08/31 02:16:56;;;;;;;17.33;14.83;;;;;;;;;;5035088;28;20188;-79
2023/08/31 02:19:22;;;;;;;17.13;15.33;;;;;;;;;;5047403;28;20179;-79
2023/08/31 02:21:48;;;;;;;17.97;14.90;;;;;;;;;;5039918;28;20255;-79
2023/08/31 02:24:14;;;;;;;16.27;14.73;;;;;;;;;;5036853;28;20211;-80
2023/08/31 02:26:40;;;;;;;18.23;15.53;;;;;;;;;;5029848;28;20207;-79
2023/08/31 02:29:06;;;;;;;19.97;15.50;;;;;;;;;;5017959;28;20210;-75
2023/08/31 02:31:32;;;;;;;18.00;16.10;;;;;;;;;;5062911;28;20195;-73
2023/08/31 02:33:58;;;;;;;18.10;14.57;;;;;;;;;;5022302;28;20192;-73
2023/08/31 02:36:24;;;;;;;17.13;15.27;;;;;;;;;;5038403;28;20311;-73
2023/08/31 02:38:50;;;;;;;16.97;14.93;;;;;;;;;;5023095;28;20267;-79
2023/08/31 02:41:17;;;;;;;17.90;16.07;;;;;;;;;;5052829;28;20319;-81
2023/08/31 02:43:43;;;;;;;19.93;16.10;;;;;;;;;;5042015;28;20190;-79
2023/08/31 02:46:09;;;;;;;17.00;15.30;;;;;;;;;;5039853;28;20172;-73
2023/08/31 02:48:35;;;;;;;18.07;16.17;;;;;;;;;;5034181;28;20270;-73
2023/08/31 02:51:02;;;;;;;17.93;16.03;;;;;;;;;;5041008;28;20214;-73
2023/08/31 02:53:28;;;;;;;20.23;16.83;;;;;;;;;;5042001;28;20179;-73
2023/08/31 02:55:54;;;;;;;20.13;18.07;;;;;;;;;;5043473;28;20298;-73
2023/08/31 02:58:20;;;;;;;19.57;16.40;;;;;;;;;;5032033;28;20175;-73
2023/08/31 03:00:48;;;;;;;21.00;17.43;;;;;;;;;;5041670;28;20212;-73
2023/08/31 03:03:17;;;;;;;19.77;17.30;;;;;;;;;;5041014;28;20252;-78
2023/08/31 03:05:44;;;;;;;22.77;17.47;;;;;;;;;;5039257;28;20222;-78
2023/08/31 03:08:10;;;;;;;19.80;17.73;;;;;;;;;;5024705;28;20238;-78
2023/08/31 03:10:36;;;;;;;21.50;19.23;;;;;;;;;;5048545;28;20184;-75
2023/08/31 03:13:03;;;;;;;21.73;19.47;;;;;;;;;;5056549;28;20184;-75
2023/08/31 03:15:29;;;;;;;22.80;19.77;;;;;;;;;;5055976;28;20180;-75
2023/08/31 03:17:55;;;;;;;21.77;19.67;;;;;;;;;;5040575;28;20199;-75
2023/08/31 03:20:21;;;;;;;21.90;19.67;;;;;;;;;;5058323;28;20187;-74
2023/08/31 03:22:47;;;;;;;22.53;20.13;;;;;;;;;;5074405;28;20179;-73
2023/08/31 03:25:13;;;;;;;22.77;20.27;;;;;;;;;;5051100;28;20215;-73
2023/08/31 03:27:39;;;;;;;22.43;20.33;;;;;;;;;;5048197;28;20248;-73
2023/08/31 03:30:06;;;;;;;23.40;20.93;;;;;;;;;;5040371;28;20218;-73
2023/08/31 03:32:32;;;;;;;21.93;19.60;;;;;;;;;;5023685;28;20187;-75
2023/08/31 03:34:58;;;;;;;22.87;20.37;;;;;;;;;;5029341;28;20183;-76
2023/08/31 03:37:24;;;;;;;23.27;20.60;;;;;;;;;;5038656;28;20183;-76
2023/08/31 03:39:50;;;;;;;25.33;20.67;;;;;;;;;;5048658;28;20249;-75
2023/08/31 03:42:16;;;;;;;23.53;21.00;;;;;;;;;;5038482;28;20231;-75
2023/08/31 03:44:42;;;;;;;23.70;21.27;;;;;;;;;;5044050;28;20211;-76
2023/08/31 03:47:08;;;;;;;25.57;22.93;;;;;;;;;;5046163;28;20180;-76
2023/08/31 03:49:34;;;;;;;25.53;22.97;;;;;;;;;;5063684;28;20254;-76
2023/08/31 03:52:01;;;;;;;26.63;23.87;;;;;;;;;;5057387;28;20179;-76
2023/08/31 03:54:27;;;;;;;27.03;24.13;;;;;;;;;;5039868;28;20185;-76
2023/08/31 03:56:53;;;;;;;28.13;23.30;;;;;;;;;;5072421;28;20202;-74
2023/08/31 03:59:19;;;;;;;25.57;22.93;;;;;;;;;;5057071;28;20179;-74
2023/08/31 04:01:46;;;;;;;24.57;21.97;;;;;;;;;;5066722;28;20218;-74
2023/08/31 04:04:12;;;;;;;27.67;23.70;;;;;;;;;;5019650;28;20334;-79
2023/08/31 04:06:38;;;;;;;31.27;24.33;;;;;;;;;;5022346;28;20247;-79
2023/08/31 04:09:04;;;;;;;26.23;23.63;;;;;;;;;;5018617;28;20192;-79
2023/08/31 04:11:30;;;;;;;27.87;23.97;;;;;;;;;;5002155;28;20187;-79
2023/08/31 04:13:56;;;;;;;25.77;23.23;;;;;;;;;;5001929;28;20279;-79
2023/08/31 04:16:22;;;;;;;25.77;22.97;;;;;;;;;;5029352;28;20191;-79
2023/08/31 04:18:51;;;;;;;25.43;22.83;;;;;;;;;;5038173;28;20233;-79
2023/08/31 04:21:18;;;;;;;24.67;22.23;;;;;;;;;;5038436;28;20195;-79
2023/08/31 04:23:45;;;;;;;24.63;21.73;;;;;;;;;;5055456;28;20176;-80
2023/08/31 04:26:14;;;;;;;23.83;21.33;;;;;;;;;;5021874;28;20176;-75
2023/08/31 04:28:43;;;;;;;24.40;21.90;;;;;;;;;;5054392;28;20172;-75
2023/08/31 04:31:10;;;;;;;24.50;21.63;;;;;;;;;;5054572;28;20234;-75
2023/08/31 04:33:36;;;;;;;24.80;20.87;;;;;;;;;;5041744;28;20250;-75
2023/08/31 04:36:04;;;;;;;23.30;20.80;;;;;;;;;;5014178;28;20176;-75
2023/08/31 04:38:30;;;;;;;23.80;20.13;;;;;;;;;;5005408;28;20267;-75
2023/08/31 04:40:59;;;;;;;22.97;20.40;;;;;;;;;;5019379;28;20176;-75
2023/08/31 04:43:25;;;;;;;25.50;20.00;;;;;;;;;;5049834;28;20305;-74
2023/08/31 04:45:52;;;;;;;22.03;19.73;;;;;;;;;;5052401;28;20222;-74
2023/08/31 04:48:18;;;;;;;22.03;19.60;;;;;;;;;;5026714;28;20172;-74
2023/08/31 04:50:44;;;;;;;24.40;20.47;;;;;;;;;;5001405;28;20183;-74
2023/08/31 04:53:10;;;;;;;24.30;18.93;;;;;;;;;;5017472;28;20169;-74
2023/08/31 04:55:37;;;;;;;23.83;20.43;;;;;;;;;;5000429;28;20177;-74
2023/08/31 04:58:03;;;;;;;23.33;20.60;;;;;;;;;;5017621;28;20172;-74
2023/08/31 05:00:29;;;;;;;25.20;19.60;;;;;;;;;;5024824;28;20229;-74
2023/08/31 05:02:56;;;;;;;21.60;19.00;;;;;;;;;;5021161;28;20203;-74
2023/08/31 05:05:22;;;;;;;21.53;19.03;;;;;;;;;;5025261;28;20208;-74
2023/08/31 05:07:48;;;;;;;23.20;18.73;;;;;;;;;;5019472;28;20282;-74
2023/08/31 05:10:14;;;;;;;25.17;19.23;;;;;;;;;;5047051;28;20251;-74
2023/08/31 05:12:40;;;;;;;24.43;18.50;;;;;;;;;;5020727;28;20274;-74
2023/08/31 05:15:06;;;;;;;22.30;19.73;;;;;;;;;;5037390;28;20290;-74
2023/08/31 05:17:32;;;;;;;21.37;19.07;;;;;;;;;;5050940;28;20194;-74
2023/08/31 05:19:58;;;;;;;21.43;19.20;;;;;;;;;;5056969;28;20192;-74
2023/08/31 05:22:24;;;;;;;24.93;19.30;;;;;;;;;;5037664;28;20183;-74
2023/08/31 05:24:50;;;;;;;23.37;20.87;;;;;;;;;;5036510;28;20213;-74
2023/08/31 05:27:16;;;;;;;25.20;20.67;;;;;;;;;;5018982;28;20192;-74
2023/08/31 05:29:42;;;;;;;27.50;20.33;;;;;;;;;;5020381;28;20199;-74
2023/08/31 05:32:08;;;;;;;24.00;20.07;;;;;;;;;;5021277;28;20180;-74
2023/08/31 05:34:37;;;;;;;24.90;21.60;;;;;;;;;;5024586;28;20183;-76
2023/08/31 05:37:04;;;;;;;24.57;21.57;;;;;;;;;;5030445;28;20196;-76
2023/08/31 05:39:30;;;;;;;25.10;22.30;;;;;;;;;;5020170;28;20192;-75
2023/08/31 05:41:57;;;;;;;26.60;22.33;;;;;;;;;;5036677;28;20262;-75
2023/08/31 05:44:23;;;;;;;26.40;23.63;;;;;;;;;;5054244;28;20215;-75
2023/08/31 05:46:49;;;;;;;27.70;23.47;;;;;;;;;;5049193;28;20214;-75
2023/08/31 05:49:15;;;;;;;27.83;24.33;;;;;;;;;;5021607;28;20215;-80
2023/08/31 05:51:41;;;;;;;27.33;24.43;;;;;;;;;;5020258;28;20187;-80
2023/08/31 05:54:11;;;;;;;28.80;25.33;;;;;;;;;;5020104;28;20282;-80
2023/08/31 05:56:39;;;;;;;28.80;25.63;;;;;;;;;;5016669;28;20189;-79
2023/08/31 05:59:05;;;;;;;31.30;26.40;;;;;;;;;;5031967;28;20192;-80
2023/08/31 06:01:31;;;;;;;29.87;26.77;;;;;;;;;;5032276;28;20188;-79
2023/08/31 06:03:57;;;;;;;31.03;27.30;;;;;;;;;;5047069;28;20208;-79
2023/08/31 06:06:23;;;;;;;30.00;26.80;;;;;;;;;;5038427;28;20175;-74
2023/08/31 06:08:50;;;;;;;30.40;27.27;;;;;;;;;;5026600;28;20278;-74
2023/08/31 06:11:16;;;;;;;30.90;27.43;;;;;;;;;;5042933;28;20187;-74
2023/08/31 06:13:42;;;;;;;29.80;26.70;;;;;;;;;;5058662;28;20187;-74
2023/08/31 06:16:08;;;;;;;32.80;27.87;;;;;;;;;;5059823;28;20182;-74
2023/08/31 06:18:34;;;;;;;32.30;29.00;;;;;;;;;;5021512;28;20180;-74
2023/08/31 06:21:00;;;;;;;32.17;27.17;;;;;;;;;;5010650;28;20188;-74
2023/08/31 06:23:26;;;;;;;31.03;27.80;;;;;;;;;;5025691;28;20184;-74
2023/08/31 06:25:52;;;;;;;28.87;25.97;;;;;;;;;;5025235;28;20215;-74
2023/08/31 06:28:18;;;;;;;19.30;17.40;;;;;;;;;;5041046;28;20224;-74
2023/08/31 06:30:47;;;;;;;28.00;24.97;;;;;;;;;;5042313;28;20207;-74
2023/08/31 06:33:14;;;;;;;27.10;24.17;;;;;;;;;;5043278;28;20187;-74
2023/08/31 06:35:40;;;;;;;26.00;23.40;;;;;;;;;;5010256;28;20274;-74
2023/08/31 06:38:06;;;;;;;25.57;22.90;;;;;;;;;;5006750;28;20200;-74
2023/08/31 06:43:00;;;;;;;26.50;23.30;;;;;;;;;;5056725;28;20232;-74
2023/08/31 06:45:26;;;;;;;26.60;23.87;;;;;;;;;;5042875;28;20211;-74
2023/08/31 06:47:52;;;;;;;25.53;23.03;;;;;;;;;;5042707;28;20203;-75
2023/08/31 06:50:18;;;;;;;24.77;22.37;;;;;;;;;;5026103;28;20176;-75
2023/08/31 06:52:46;;;;;;;23.67;20.87;;;;;;;;;;5060092;28;20183;-73
2023/08/31 06:55:12;;;;;;;23.33;20.93;;;;;;;;;;5026416;28;20278;-73
2023/08/31 06:57:39;;;;;;;22.23;19.93;;;;;;;;;;5042771;28;20279;-74
2023/08/31 07:00:07;;;;;;;22.40;20.07;;;;;;;;;;5060338;28;20186;-74
2023/08/31 07:02:34;;;;;;;22.83;20.63;;;;;;;;;;5042613;28;20184;-74
2023/08/31 07:05:01;;;;;;;22.80;20.20;;;;;;;;;;5042433;28;20220;-74
2023/08/31 07:07:27;;;;;;;22.23;20.03;;;;;;;;;;5060128;28;20172;-74
2023/08/31 07:09:54;;;;;;;24.43;22.03;;;;;;;;;;5026488;28;20193;-73
2023/08/31 07:12:20;;;;;;;24.87;22.17;;;;;;;;;;5026979;28;20275;-79
2023/08/31 07:14:46;;;;;;;25.07;22.53;;;;;;;;;;5042554;28;20223;-79
2023/08/31 07:17:12;;;;;;;24.97;21.80;;;;;;;;;;5043519;28;20180;-78
2023/08/31 07:19:38;;;;;;;24.33;21.83;;;;;;;;;;5038576;28;20318;-79
2023/08/31 07:22:06;;;;;;;24.67;22.37;;;;;;;;;;5038848;28;20189;-79
2023/08/31 07:24:32;;;;;;;23.13;20.87;;;;;;;;;;5023156;28;20214;-79
2023/08/31 07:26:58;;;;;;;23.53;21.03;;;;;;;;;;5038980;28;20257;-80
2023/08/31 07:29:24;;;;;;;22.53;18.53;;;;;;;;;;5039074;28;20208;-80
2023/08/31 07:31:50;;;;;;;23.40;20.00;;;;;;;;;;5039464;28;20263;-80
2023/08/31 07:34:16;;;;;;;21.37;19.23;;;;;;;;;;5038631;28;20246;-79
2023/08/31 07:36:43;;;;;;;22.33;19.90;;;;;;;;;;5022028;28;20201;-79
2023/08/31 07:39:09;;;;;;;21.10;18.90;;;;;;;;;;5056658;28;20263;-79
2023/08/31 07:41:35;;;;;;;19.17;17.17;;;;;;;;;;5022287;28;20259;-79
2023/08/31 07:44:02;;;;;;;19.47;17.47;;;;;;;;;;5038827;28;20208;-79
2023/08/31 07:46:28;;;;;;;18.00;16.07;;;;;;;;;;5038672;28;20191;-80
2023/08/31 07:48:55;;;;;;;17.90;15.97;;;;;;;;;;5039089;28;20172;-80
2023/08/31 07:51:23;;;;;;;18.93;17.07;;;;;;;;;;5022307;28;20188;-79
2023/08/31 07:53:49;;;;;;;18.87;16.87;;;;;;;;;;5038645;28;20179;-80
2023/08/31 07:56:15;;;;;;;19.70;15.73;;;;;;;;;;5021734;28;20190;-78
2023/08/31 07:58:41;;;;;;;15.73;14.13;;;;;;;;;;5038466;28;20176;-80
2023/08/31 08:01:07;;;;;;;17.23;14.70;;;;;;;;;;5022705;28;20183;-79
2023/08/31 08:03:33;;;;;;;14.97;13.33;;;;;;;;;;5038319;28;20187;-76
2023/08/31 08:06:00;;;;;;;14.87;13.37;;;;;;;;;;5056070;28;20212;-76
2023/08/31 08:08:26;;;;;;;14.50;12.80;;;;;;;;;;5037475;28;20188;-77
2023/08/31 08:10:55;;;;;;;17.47;13.83;;;;;;;;;;5022123;28;20184;-76
2023/08/31 08:13:21;;;;;;;15.10;12.97;;;;;;;;;;5037790;28;20263;-76
2023/08/31 08:15:47;;;;;;;15.53;9.93;;;;;;;;;;5055824;28;20186;-76
2023/08/31 08:18:13;;;;;;;14.07;10.67;;;;;;;;;;5037841;28;20215;-76
2023/08/31 08:20:39;;;;;;;14.00;10.73;;;;;;;;;;5022065;28;20257;-80
2023/08/31 08:23:06;;;;;;;16.10;12.03;;;;;;;;;;5021552;28;20235;-80
2023/08/31 08:25:33;;;;;;;15.67;12.73;;;;;;;;;;5037744;28;20208;-80
2023/08/31 08:27:59;;;;;;;16.23;13.23;;;;;;;;;;5037875;28;20176;-80
2023/08/31 08:30:25;;;;;;;17.37;14.47;;;;;;;;;;5037071;28;20179;-80
2023/08/31 08:32:51;;;;;;;16.73;14.43;;;;;;;;;;5037906;28;20204;-81
2023/08/31 08:35:17;;;;;;;18.47;14.70;;;;;;;;;;5037821;28;20180;-81
2023/08/31 08:37:43;;;;;;;17.83;14.77;;;;;;;;;;5021618;28;20188;-80
2023/08/31 08:40:10;;;;;;;16.90;14.50;;;;;;;;;;5021173;28;20191;-80
2023/08/31 08:42:43;;;;;;;16.37;14.67;;;;;;;;;;5020611;28;20236;-81
2023/08/31 08:45:15;;;;;;;16.67;14.97;;;;;;;;;;5037193;28;20203;-80
2023/08/31 08:47:41;;;;;;;17.50;14.27;;;;;;;;;;5055126;28;20164;-80
2023/08/31 08:50:08;;;;;;;15.03;13.20;;;;;;;;;;5037213;28;20188;-80
2023/08/31 08:52:34;;;;;;;16.20;13.63;;;;;;;;;;5037577;28;20172;-76
2023/08/31 08:55:02;;;;;;;13.83;12.50;;;;;;;;;;5055086;28;20191;-76
2023/08/31 08:57:28;;;;;;;13.87;12.47;;;;;;;;;;5037644;28;20190;-76
2023/08/31 08:59:54;;;;;;;14.70;12.70;;;;;;;;;;5044342;28;20245;-75
2023/08/31 09:02:20;;;;;;;14.60;13.07;;;;;;;;;;5054935;28;20187;-76
2023/08/31 09:04:46;;;;;;;13.83;12.40;;;;;;;;;;5029330;28;20230;-76
2023/08/31 09:07:12;;;;;;;13.03;11.77;;;;;;;;;;5031211;28;20191;-75
2023/08/31 09:09:51;;;;;;;14.20;12.30;;;;;;;;;;5039605;28;20188;-74
2023/08/31 09:12:17;;;;;;;14.37;11.53;;;;;;;;;;5036814;28;20267;-74
2023/08/31 09:14:43;;;;;;;13.73;11.40;;;;;;;;;;5036252;28;20218;-74
2023/08/31 09:17:09;;;;;;;15.90;12.07;;;;;;;;;;5054448;28;20180;-74
2023/08/31 09:19:35;;;;;;;11.80;10.63;;;;;;;;;;5036275;28;20262;-74
2023/08/31 09:22:02;;;;;;;11.67;10.47;;;;;;;;;;5053638;28;20222;-74
2023/08/31 09:24:29;;;;;;;13.37;9.30;;;;;;;;;;5036197;28;20203;-74
2023/08/31 09:26:56;;;;;;;9.77;8.13;;;;;;;;;;5053279;28;20182;-75
2023/08/31 09:29:22;;;;;;;10.40;7.85;;;;;;;;;;5036096;28;20411;-76
2023/08/31 09:31:48;;;;;;;8.90;7.40;;;;;;;;;;5053287;28;20483;-75
2023/08/31 09:34:15;;;;;;;8.82;7.55;;;;;;;;;;5035742;28;20413;-75
2023/08/31 09:36:42;;;;;;;7.85;5.75;;;;;;;;;;5052650;28;20404;-76
2023/08/31 09:39:09;;;;;;;8.50;5.57;;;;;;;;;;5035762;28;20441;-75
2023/08/31 09:41:35;;;;;;;6.78;5.40;;;;;;;;;;5052737;28;20396;-76
2023/08/31 09:44:17;;;;;;;8.15;5.47;;;;;;;;;;5035726;28;20428;-76
2023/08/31 09:46:44;;;;;;;8.10;5.87;;;;;;;;;;5035560;28;20415;-76
2023/08/31 09:49:13;;;;;;;10.37;5.50;;;;;;;;;;5036438;28;20425;-77
2023/08/31 09:51:40;;;;;;;8.67;5.07;;;;;;;;;;5036654;28;20186;-77
2023/08/31 09:54:07;;;;;;;8.30;4.88;;;;;;;;;;5054208;28;20419;-77
2023/08/31 09:56:33;;;;;;;6.40;4.80;;;;;;;;;;5052353;28;20415;-77
2023/08/31 09:59:00;;;;;;;5.68;4.00;;;;;;;;;;5053382;28;20408;-77
2023/08/31 10:01:26;;;;;;;6.53;4.20;;;;;;;;;;5035990;28;20404;-78
2023/08/31 10:03:52;;;;;;;4.43;3.38;;;;;;;;;;5036254;28;20279;-77
2023/08/31 10:06:19;;;;;;;4.75;3.53;;;;;;;;;;5053759;28;20298;-77
2023/08/31 10:08:45;;;;;;;4.43;3.60;;;;;;;;;;5035748;28;20408;-77
2023/08/31 10:11:13;;;;;;;6.97;3.97;;;;;;;;;;5053800;28;20178;-77
2023/08/31 10:13:40;;;;;;;6.33;3.90;;;;;;;;;;5054096;28;20173;-77
2023/08/31 10:16:06;;;;;;;6.93;4.30;;;;;;;;;;5054173;28;20172;-77
2023/08/31 10:18:34;;;;;;;16.48;8.00;;;;;;;;;;5050787;28;20515;-76
2023/08/31 10:21:02;;;;;;;9.40;5.13;;;;;;;;;;5035726;28;20251;-76
2023/08/31 10:23:28;;;;;;;7.70;5.27;;;;;;;;;;5035717;28;20215;-76
2023/08/31 10:25:54;;;;;;;6.87;5.27;;;;;;;;;;5053989;28;20235;-76
2023/08/31 10:28:24;;;;;;;5.70;4.53;;;;;;;;;;5035958;28;20179;-76
2023/08/31 10:31:04;;;;;;;8.03;4.50;;;;;;;;;;5035845;28;20229;-76
2023/08/31 10:33:34;;;;;;;7.40;5.17;;;;;;;;;;5053695;28;20180;-76
2023/08/31 10:36:00;;;;;;;8.60;4.87;;;;;;;;;;5053484;28;20176;-76
2023/08/31 10:38:28;;;;;;;6.37;4.93;;;;;;;;;;5019591;28;20192;-76
2023/08/31 10:41:14;;;;;;;8.10;4.80;;;;;;;;;;5053758;28;20184;-76
2023/08/31 10:43:59;;;;;;;8.80;4.80;;;;;;;;;;5035324;28;20227;-76
2023/08/31 10:46:27;;;;;;;6.30;4.83;;;;;;;;;;5053070;28;20176;-77
2023/08/31 10:48:54;;;;;;;8.37;4.50;;;;;;;;;;5038268;28;20296;-77
2023/08/31 10:51:22;;;;;;;7.17;4.10;;;;;;;;;;5056212;28;20171;-77
2023/08/31 10:53:48;;;;;;;5.13;3.83;;;;;;;;;;5075375;28;20167;-78
2023/08/31 10:56:16;;;;;;;5.90;3.70;;;;;;;;;;5059681;28;20180;-77
2023/08/31 10:58:42;;;;;;;4.73;3.00;;;;;;;;;;5077343;28;20172;-78
2023/08/31 11:01:08;;;;;;;3.50;2.37;;;;;;;;;;5042839;28;20175;-77
2023/08/31 11:03:54;;;;;;;3.83;2.10;;;;;;;;;;5041079;28;20283;-77
2023/08/31 11:06:21;;;;;;;4.07;1.93;;;;;;;;;;5038325;28;20431;-75
2023/08/31 11:08:47;;;;;;;5.05;2.00;;;;;;;;;;5023445;28;20175;-76
2023/08/31 11:11:13;;;;;;;3.78;1.95;;;;;;;;;;5038838;28;20475;-76
2023/08/31 11:13:39;;;;;;;2.97;1.80;;;;;;;;;;5023100;28;20279;-75
2023/08/31 11:16:06;;;;;;;2.95;1.70;;;;;;;;;;5039333;28;20180;-76
2023/08/31 11:18:32;;;;;;;3.67;1.88;;;;;;;;;;5023015;28;20180;-76
2023/08/31 11:20:59;;;;;;;4.47;2.13;;;;;;;;;;5022288;28;20207;-76
2023/08/31 11:23:26;;;;;;;4.18;1.85;;;;;;;;;;5022911;28;20214;-76
2023/08/31 11:25:52;;;;;;;5.50;2.17;;;;;;;;;;5022620;28;20551;-76
2023/08/31 11:28:18;;;;;;;4.50;2.40;;;;;;;;;;5038532;28;20550;-77
2023/08/31 11:30:46;;;;;;;3.25;2.03;;;;;;;;;;5022605;28;20172;-76
2023/08/31 11:33:14;;;;;;;4.30;2.30;;;;;;;;;;5038983;28;20395;-77
2023/08/31 11:35:41;;;;;;;4.23;2.30;;;;;;;;;;5025628;28;20436;-77
2023/08/31 11:38:07;;;;;;;3.45;2.15;;;;;;;;;;5056098;28;20565;-77
2023/08/31 11:40:33;;;;;;;4.05;2.28;;;;;;;;;;5054514;28;20247;-78
2023/08/31 11:43:03;;;;;;;4.32;2.20;;;;;;;;;;5036592;28;20497;-77
2023/08/31 11:45:30;;;;;;;6.15;2.60;;;;;;;;;;5024239;28;20525;-77
2023/08/31 11:47:56;;;;;;;4.80;2.60;;;;;;;;;;5026854;28;20475;-78
2023/08/31 11:50:22;;;;;;;5.30;2.35;;;;;;;;;;5056080;28;20262;-77
2023/08/31 11:52:48;;;;;;;4.93;2.20;;;;;;;;;;5048937;28;20418;-77
2023/08/31 11:55:17;;;;;;;3.72;1.83;;;;;;;;;;5032266;28;20450;-77
2023/08/31 11:57:48;;;;;;;3.55;1.65;;;;;;;;;;5038880;28;20256;-75
2023/08/31 12:00:17;;;;;;;3.08;1.35;;;;;;;;;;5038528;28;20190;-76
2023/08/31 12:02:46;;;;;;;2.90;1.48;;;;;;;;;;5056315;28;20199;-76
2023/08/31 12:05:12;;;;;;;2.35;1.30;;;;;;;;;;5055097;28;20435;-75
2023/08/31 12:07:41;;;;;;;2.78;1.50;;;;;;;;;;5055287;28;20432;-76
2023/08/31 12:10:09;;;;;;;3.38;1.50;;;;;;;;;;5055341;28;20404;-76
2023/08/31 12:12:36;;;;;;;3.90;1.50;;;;;;;;;;5037085;28;20412;-77
2023/08/31 12:15:06;;;;;;;4.28;1.45;;;;;;;;;;5037517;28;20501;-77
2023/08/31 12:17:32;;;;;;;2.88;1.50;;;;;;;;;;5038372;28;20410;-77
2023/08/31 12:20:05;;;;;;;5.15;1.50;;;;;;;;;;5020920;28;20511;-77
2023/08/31 12:22:31;;;;;;;2.47;1.40;;;;;;;;;;5020916;28;20408;-77
2023/08/31 12:24:57;;;;;;;3.90;1.40;;;;;;;;;;5037706;28;20432;-77
2023/08/31 12:27:23;;;;;;;3.33;1.42;;;;;;;;;;5037751;28;20404;-77
2023/08/31 12:29:50;;;;;;;3.60;1.67;;;;;;;;;;5037260;28;20430;-82
2023/08/31 12:32:19;;;;;;;4.35;2.00;;;;;;;;;;5021677;28;20199;-82
2023/08/31 12:34:45;;;;;;;3.30;1.98;;;;;;;;;;5036901;28;20412;-82
2023/08/31 12:37:11;;;;;;;3.83;2.00;;;;;;;;;;5021108;28;20486;-83
2023/08/31 12:39:37;;;;;;;4.95;1.90;;;;;;;;;;5026953;28;20425;-83
2023/08/31 12:42:04;;;;;;;2.88;1.48;;;;;;;;;;5017444;28;20421;-82
2023/08/31 12:44:31;;;;;;;4.38;1.52;;;;;;;;;;5034595;28;21214;-82
2023/08/31 12:46:57;;;;;;;3.03;1.35;;;;;;;;;;5034468;28;20177;-76
2023/08/31 12:49:23;;;;;;;2.08;1.20;;;;;;;;;;5001571;28;20173;-75
2023/08/31 12:51:50;;;;;;;3.40;1.30;;;;;;;;;;5001607;28;20177;-76
2023/08/31 12:54:16;;;;;;;2.33;1.38;;;;;;;;;;5034350;28;20304;-76
2023/08/31 12:56:43;;;;;;;1.92;1.30;;;;;;;;;;5017806;28;20192;-75
2023/08/31 12:59:09;;;;;;;2.17;1.23;;;;;;;;;;5001422;28;20183;-76
2023/08/31 13:01:36;;;;;;;3.33;1.45;;;;;;;;;;5001646;28;20206;-76
2023/08/31 13:04:02;;;;;;;3.78;1.30;;;;;;;;;;5018386;28;20231;-77
2023/08/31 13:06:28;;;;;;;2.15;1.30;;;;;;;;;;5054561;28;20446;-77
2023/08/31 13:08:55;;;;;;;2.33;1.30;;;;;;;;;;5020544;28;20405;-78
2023/08/31 13:11:23;;;;;;;2.23;1.30;;;;;;;;;;5036912;28;20434;-78
2023/08/31 13:13:53;;;;;;;4.38;1.48;;;;;;;;;;5036364;28;20570;-77
2023/08/31 13:16:19;;;;;;;3.15;1.50;;;;;;;;;;5034793;28;20423;-76
2023/08/31 13:18:45;;;;;;;3.57;1.40;;;;;;;;;;5040372;28;20470;-76
2023/08/31 13:21:11;;;;;;;2.60;1.40;;;;;;;;;;5054488;28;20396;-75
2023/08/31 13:23:37;;;;;;;2.85;1.38;;;;;;;;;;5036728;28;20392;-75
2023/08/31 13:26:03;;;;;;;4.17;1.47;;;;;;;;;;5036357;28;20466;-75
2023/08/31 13:28:29;;;;;;;5.38;1.55;;;;;;;;;;5053780;28;20396;-75
2023/08/31 13:31:00;;;;;;;3.30;1.40;;;;;;;;;;5053502;28;20415;-75
2023/08/31 13:33:28;;;;;;;3.30;1.55;;;;;;;;;;5020196;28;20432;-75
2023/08/31 13:35:54;;;;;;;4.70;1.60;;;;;;;;;;5036387;28;20404;-75
2023/08/31 13:38:20;;;;;;;2.75;1.50;;;;;;;;;;5019465;28;20412;-75
2023/08/31 13:40:46;;;;;;;3.72;1.40;;;;;;;;;;5036890;28;20176;-75
2023/08/31 13:43:12;;;;;;;2.88;1.60;;;;;;;;;;5010385;28;20233;-75
2023/08/31 13:45:38;;;;;;;3.10;1.50;;;;;;;;;;5014363;28;20439;-76
2023/08/31 13:48:04;;;;;;;3.45;1.63;;;;;;;;;;5014575;28;20184;-75
2023/08/31 13:50:31;;;;;;;3.95;1.50;;;;;;;;;;5012926;28;20479;-75
2023/08/31 13:52:57;;;;;;;2.30;1.30;;;;;;;;;;5013440;28;20419;-77
2023/08/31 13:55:23;;;;;;;4.00;1.50;;;;;;;;;;5013491;28;20189;-77
2023/08/31 13:57:49;;;;;;;2.22;1.30;;;;;;;;;;5014780;28;20239;-77
2023/08/31 14:00:16;;;;;;;3.47;1.50;;;;;;;;;;4996810;28;20419;-77
2023/08/31 14:02:46;;;;;;;3.10;1.55;;;;;;;;;;5013530;28;20245;-77
2023/08/31 14:05:12;;;;;;;4.03;1.60;;;;;;;;;;5014375;28;20236;-77
2023/08/31 14:07:38;;;;;;;3.63;1.50;;;;;;;;;;4996664;28;20430;-77
2023/08/31 14:10:05;;;;;;;3.80;1.70;;;;;;;;;;5012270;28;20425;-75
2023/08/31 14:12:31;;;;;;;2.30;1.48;;;;;;;;;;5012442;28;20412;-75
2023/08/31 14:14:57;;;;;;;3.13;1.58;;;;;;;;;;5013121;28;20414;-75
2023/08/31 14:17:24;;;;;;;2.38;1.48;;;;;;;;;;5012338;28;20414;-75
2023/08/31 14:19:50;;;;;;;3.33;1.52;;;;;;;;;;4996069;28;20419;-75
2023/08/31 14:22:16;;;;;;;2.93;1.67;;;;;;;;;;4996529;28;20419;-81
2023/08/31 14:24:42;;;;;;;3.92;1.40;;;;;;;;;;5014267;28;20201;-80
2023/08/31 14:27:08;;;;;;;2.73;1.47;;;;;;;;;;4998161;28;20418;-75
2023/08/31 14:29:35;;;;;;;4.13;1.70;;;;;;;;;;5000429;28;20408;-76
2023/08/31 14:32:01;;;;;;;3.15;1.60;;;;;;;;;;5016207;28;20410;-75